sensor_id;sensor_type;location;lat;lon;timestamp;temperature;humidity
41324;DHT22;27073;51.128;4.220;2023-01-28T00:00:08;6.40;64.70
41324;DHT22;27073;51.128;4.220;2023-01-28T00:02:34;6.50;62.40
41324;DHT22;27073;51.128;4.220;2023-01-28T00:05:01;6.60;61.70
41324;DHT22;27073;51.128;4.220;2023-01-28T00:07:26;6.60;62.90
41324;DHT22;27073;51.128;4.220;2023-01-28T00:09:52;6.70;61.90
41324;DHT22;27073;51.128;4.220;2023-01-28T00:12:18;6.80;60.70
41324;DHT22;27073;51.128;4.220;2023-01-28T00:14:44;6.70;60.30
41324;DHT22;27073;51.128;4.220;2023-01-28T00:17:13;6.50;60.20
41324;DHT22;27073;51.128;4.220;2023-01-28T00:19:40;6.60;61.10
41324;DHT22;27073;51.128;4.220;2023-01-28T00:22:05;6.60;64.60
41324;DHT22;27073;51.128;4.220;2023-01-28T00:24:31;6.60;66.50
41324;DHT22;27073;51.128;4.220;2023-01-28T00:26:57;6.40;71.70
41324;DHT22;27073;51.128;4.220;2023-01-28T00:29:23;6.60;69.90
41324;DHT22;27073;51.128;4.220;2023-01-28T00:31:48;6.80;63.60
41324;DHT22;27073;51.128;4.220;2023-01-28T00:34:14;6.70;58.60
41324;DHT22;27073;51.128;4.220;2023-01-28T00:36:40;6.70;60.60
41324;DHT22;27073;51.128;4.220;2023-01-28T00:39:09;6.50;61.70
41324;DHT22;27073;51.128;4.220;2023-01-28T00:41:35;6.60;60.30
41324;DHT22;27073;51.128;4.220;2023-01-28T00:44:02;6.50;57.10
41324;DHT22;27073;51.128;4.220;2023-01-28T00:46:28;6.70;59.90
41324;DHT22;27073;51.128;4.220;2023-01-28T00:48:54;6.70;62.70
41324;DHT22;27073;51.128;4.220;2023-01-28T00:51:20;6.60;62.50
41324;DHT22;27073;51.128;4.220;2023-01-28T00:53:48;6.50;65.70
41324;DHT22;27073;51.128;4.220;2023-01-28T00:56:15;6.40;62.30
41324;DHT22;27073;51.128;4.220;2023-01-28T00:58:42;6.40;61.40
41324;DHT22;27073;51.128;4.220;2023-01-28T01:01:16;6.40;61.20
41324;DHT22;27073;51.128;4.220;2023-01-28T01:03:42;6.20;61.20
41324;DHT22;27073;51.128;4.220;2023-01-28T01:06:09;5.90;66.00
41324;DHT22;27073;51.128;4.220;2023-01-28T01:08:35;6.00;64.80
41324;DHT22;27073;51.128;4.220;2023-01-28T01:11:07;6.00;61.80
41324;DHT22;27073;51.128;4.220;2023-01-28T01:13:33;6.00;61.50
41324;DHT22;27073;51.128;4.220;2023-01-28T01:16:05;6.20;59.90
41324;DHT22;27073;51.128;4.220;2023-01-28T01:18:31;6.30;55.10
41324;DHT22;27073;51.128;4.220;2023-01-28T01:20:59;6.20;52.90
41324;DHT22;27073;51.128;4.220;2023-01-28T01:23:29;6.40;55.10
41324;DHT22;27073;51.128;4.220;2023-01-28T01:25:55;6.50;56.40
41324;DHT22;27073;51.128;4.220;2023-01-28T01:28:21;6.70;57.70
41324;DHT22;27073;51.128;4.220;2023-01-28T01:30:48;6.70;56.80
41324;DHT22;27073;51.128;4.220;2023-01-28T01:33:14;6.80;57.80
41324;DHT22;27073;51.128;4.220;2023-01-28T01:35:40;6.90;58.70
41324;DHT22;27073;51.128;4.220;2023-01-28T01:38:07;6.90;57.60
41324;DHT22;27073;51.128;4.220;2023-01-28T01:40:33;6.80;58.20
41324;DHT22;27073;51.128;4.220;2023-01-28T01:42:59;6.90;59.50
41324;DHT22;27073;51.128;4.220;2023-01-28T01:45:26;6.90;59.60
41324;DHT22;27073;51.128;4.220;2023-01-28T01:48:12;6.90;60.50
41324;DHT22;27073;51.128;4.220;2023-01-28T01:50:52;6.90;60.80
41324;DHT22;27073;51.128;4.220;2023-01-28T01:53:21;7.00;60.20
41324;DHT22;27073;51.128;4.220;2023-01-28T01:55:49;6.90;57.90
41324;DHT22;27073;51.128;4.220;2023-01-28T01:58:20;6.90;55.60
41324;DHT22;27073;51.128;4.220;2023-01-28T02:00:46;6.60;58.30
41324;DHT22;27073;51.128;4.220;2023-01-28T02:03:13;6.50;57.70
41324;DHT22;27073;51.128;4.220;2023-01-28T02:05:42;6.50;55.30
41324;DHT22;27073;51.128;4.220;2023-01-28T02:08:08;6.40;56.60
41324;DHT22;27073;51.128;4.220;2023-01-28T02:11:03;6.50;55.20
41324;DHT22;27073;51.128;4.220;2023-01-28T02:13:35;6.40;57.00
41324;DHT22;27073;51.128;4.220;2023-01-28T02:16:03;6.50;56.40
41324;DHT22;27073;51.128;4.220;2023-01-28T02:18:31;6.50;52.10
41324;DHT22;27073;51.128;4.220;2023-01-28T02:21:41;6.30;50.60
41324;DHT22;27073;51.128;4.220;2023-01-28T02:26:49;6.30;54.80
41324;DHT22;27073;51.128;4.220;2023-01-28T02:32:30;6.20;59.00
41324;DHT22;27073;51.128;4.220;2023-01-28T02:35:47;6.20;58.80
41324;DHT22;27073;51.128;4.220;2023-01-28T02:40:24;6.30;61.10
41324;DHT22;27073;51.128;4.220;2023-01-28T02:42:56;6.40;60.30
41324;DHT22;27073;51.128;4.220;2023-01-28T02:45:33;6.30;54.90
41324;DHT22;27073;51.128;4.220;2023-01-28T02:48:20;6.20;56.10
41324;DHT22;27073;51.128;4.220;2023-01-28T02:51:00;6.20;57.60
41324;DHT22;27073;51.128;4.220;2023-01-28T02:53:38;6.10;57.60
41324;DHT22;27073;51.128;4.220;2023-01-28T02:56:56;6.10;57.80
41324;DHT22;27073;51.128;4.220;2023-01-28T02:59:17;6.10;53.00
41324;DHT22;27073;51.128;4.220;2023-01-28T03:02:09;6.10;52.50
41324;DHT22;27073;51.128;4.220;2023-01-28T03:04:58;6.10;52.10
41324;DHT22;27073;51.128;4.220;2023-01-28T03:07:27;6.10;54.90
41324;DHT22;27073;51.128;4.220;2023-01-28T03:09:57;6.20;57.30
41324;DHT22;27073;51.128;4.220;2023-01-28T03:12:27;6.20;59.50
41324;DHT22;27073;51.128;4.220;2023-01-28T03:15:16;6.30;58.50
41324;DHT22;27073;51.128;4.220;2023-01-28T03:18:04;6.40;58.10
41324;DHT22;27073;51.128;4.220;2023-01-28T03:21:14;6.40;56.20
41324;DHT22;27073;51.128;4.220;2023-01-28T03:24:19;6.30;54.50
41324;DHT22;27073;51.128;4.220;2023-01-28T03:27:11;6.40;55.30
41324;DHT22;27073;51.128;4.220;2023-01-28T03:30:17;6.50;54.60
41324;DHT22;27073;51.128;4.220;2023-01-28T03:33:09;6.50;51.40
41324;DHT22;27073;51.128;4.220;2023-01-28T03:35:54;6.40;54.20
41324;DHT22;27073;51.128;4.220;2023-01-28T03:38:41;6.20;51.80
41324;DHT22;27073;51.128;4.220;2023-01-28T03:41:10;6.30;52.70
41324;DHT22;27073;51.128;4.220;2023-01-28T03:43:37;6.20;53.50
41324;DHT22;27073;51.128;4.220;2023-01-28T03:46:03;6.40;54.60
41324;DHT22;27073;51.128;4.220;2023-01-28T03:48:31;6.40;53.20
41324;DHT22;27073;51.128;4.220;2023-01-28T03:50:59;6.50;55.80
41324;DHT22;27073;51.128;4.220;2023-01-28T03:53:27;6.50;58.20
41324;DHT22;27073;51.128;4.220;2023-01-28T03:55:54;6.50;58.70
41324;DHT22;27073;51.128;4.220;2023-01-28T03:58:24;6.50;57.10
41324;DHT22;27073;51.128;4.220;2023-01-28T04:01:12;6.60;55.50
41324;DHT22;27073;51.128;4.220;2023-01-28T04:03:38;6.60;54.60
41324;DHT22;27073;51.128;4.220;2023-01-28T04:06:10;6.70;55.30
41324;DHT22;27073;51.128;4.220;2023-01-28T04:08:49;6.70;54.20
41324;DHT22;27073;51.128;4.220;2023-01-28T04:11:28;6.80;53.70
41324;DHT22;27073;51.128;4.220;2023-01-28T04:13:56;6.80;54.80
41324;DHT22;27073;51.128;4.220;2023-01-28T04:16:23;6.80;54.00
41324;DHT22;27073;51.128;4.220;2023-01-28T04:18:48;6.80;55.10
41324;DHT22;27073;51.128;4.220;2023-01-28T04:21:15;6.80;51.50
41324;DHT22;27073;51.128;4.220;2023-01-28T04:23:42;6.70;50.50
41324;DHT22;27073;51.128;4.220;2023-01-28T04:26:09;6.70;53.00
41324;DHT22;27073;51.128;4.220;2023-01-28T04:28:35;6.70;53.40
41324;DHT22;27073;51.128;4.220;2023-01-28T04:31:01;6.60;48.80
41324;DHT22;27073;51.128;4.220;2023-01-28T04:33:44;6.50;51.70
41324;DHT22;27073;51.128;4.220;2023-01-28T04:36:21;6.50;53.90
41324;DHT22;27073;51.128;4.220;2023-01-28T04:39:25;6.40;53.70
41324;DHT22;27073;51.128;4.220;2023-01-28T04:42:08;6.40;56.50
41324;DHT22;27073;51.128;4.220;2023-01-28T04:44:53;6.40;57.50
41324;DHT22;27073;51.128;4.220;2023-01-28T04:47:57;6.60;56.20
41324;DHT22;27073;51.128;4.220;2023-01-28T04:50:36;6.50;54.00
41324;DHT22;27073;51.128;4.220;2023-01-28T04:53:21;6.40;55.50
41324;DHT22;27073;51.128;4.220;2023-01-28T04:55:57;6.30;57.60
41324;DHT22;27073;51.128;4.220;2023-01-28T04:58:23;6.40;59.70
41324;DHT22;27073;51.128;4.220;2023-01-28T05:00:54;6.40;57.40
41324;DHT22;27073;51.128;4.220;2023-01-28T05:03:20;6.40;58.20
41324;DHT22;27073;51.128;4.220;2023-01-28T05:05:46;6.40;56.20
41324;DHT22;27073;51.128;4.220;2023-01-28T05:08:19;6.20;57.50
41324;DHT22;27073;51.128;4.220;2023-01-28T05:10:46;6.20;56.50
41324;DHT22;27073;51.128;4.220;2023-01-28T05:13:12;6.30;55.40
41324;DHT22;27073;51.128;4.220;2023-01-28T05:15:39;6.30;53.90
41324;DHT22;27073;51.128;4.220;2023-01-28T05:18:05;6.30;47.60
41324;DHT22;27073;51.128;4.220;2023-01-28T05:20:38;6.30;49.70
41324;DHT22;27073;51.128;4.220;2023-01-28T05:23:03;6.30;52.00
41324;DHT22;27073;51.128;4.220;2023-01-28T05:25:47;6.20;49.40
41324;DHT22;27073;51.128;4.220;2023-01-28T05:28:14;6.20;49.80
41324;DHT22;27073;51.128;4.220;2023-01-28T05:30:40;6.20;52.10
41324;DHT22;27073;51.128;4.220;2023-01-28T05:33:06;6.30;52.70
41324;DHT22;27073;51.128;4.220;2023-01-28T05:35:32;6.10;47.80
41324;DHT22;27073;51.128;4.220;2023-01-28T05:37:58;6.10;48.60
41324;DHT22;27073;51.128;4.220;2023-01-28T05:40:25;6.10;51.00
41324;DHT22;27073;51.128;4.220;2023-01-28T05:42:50;5.90;48.20
41324;DHT22;27073;51.128;4.220;2023-01-28T05:45:23;6.00;50.40
41324;DHT22;27073;51.128;4.220;2023-01-28T05:48:02;6.00;50.70
41324;DHT22;27073;51.128;4.220;2023-01-28T05:50:48;6.10;51.10
41324;DHT22;27073;51.128;4.220;2023-01-28T05:53:27;6.00;49.90
41324;DHT22;27073;51.128;4.220;2023-01-28T05:55:54;5.90;48.00
41324;DHT22;27073;51.128;4.220;2023-01-28T05:58:22;5.90;50.50
41324;DHT22;27073;51.128;4.220;2023-01-28T06:00:48;5.90;51.40
41324;DHT22;27073;51.128;4.220;2023-01-28T06:03:18;5.80;52.50
41324;DHT22;27073;51.128;4.220;2023-01-28T06:05:44;5.70;55.10
41324;DHT22;27073;51.128;4.220;2023-01-28T06:08:10;5.70;57.10
41324;DHT22;27073;51.128;4.220;2023-01-28T06:10:36;5.80;59.40
41324;DHT22;27073;51.128;4.220;2023-01-28T06:13:03;5.70;58.20
41324;DHT22;27073;51.128;4.220;2023-01-28T06:15:51;5.80;60.10
41324;DHT22;27073;51.128;4.220;2023-01-28T06:18:34;5.80;57.90
41324;DHT22;27073;51.128;4.220;2023-01-28T06:21:00;5.80;56.00
41324;DHT22;27073;51.128;4.220;2023-01-28T06:23:25;5.80;56.00
41324;DHT22;27073;51.128;4.220;2023-01-28T06:25:55;5.80;56.50
41324;DHT22;27073;51.128;4.220;2023-01-28T06:28:22;5.80;56.20
41324;DHT22;27073;51.128;4.220;2023-01-28T06:30:49;5.90;57.00
41324;DHT22;27073;51.128;4.220;2023-01-28T06:33:16;6.00;55.80
41324;DHT22;27073;51.128;4.220;2023-01-28T06:35:42;6.00;53.70
41324;DHT22;27073;51.128;4.220;2023-01-28T06:38:09;6.00;53.90
41324;DHT22;27073;51.128;4.220;2023-01-28T06:40:35;6.10;52.60
41324;DHT22;27073;51.128;4.220;2023-01-28T06:43:02;6.10;52.40
41324;DHT22;27073;51.128;4.220;2023-01-28T06:45:28;6.20;52.70
41324;DHT22;27073;51.128;4.220;2023-01-28T06:47:54;6.30;52.70
41324;DHT22;27073;51.128;4.220;2023-01-28T06:50:20;6.40;51.60
41324;DHT22;27073;51.128;4.220;2023-01-28T06:52:45;6.30;52.10
41324;DHT22;27073;51.128;4.220;2023-01-28T06:55:11;6.30;54.80
41324;DHT22;27073;51.128;4.220;2023-01-28T06:57:40;6.30;55.00
41324;DHT22;27073;51.128;4.220;2023-01-28T07:00:09;6.30;55.10
41324;DHT22;27073;51.128;4.220;2023-01-28T07:02:36;6.40;56.20
41324;DHT22;27073;51.128;4.220;2023-01-28T07:05:02;6.40;56.20
41324;DHT22;27073;51.128;4.220;2023-01-28T07:07:28;6.50;54.80
41324;DHT22;27073;51.128;4.220;2023-01-28T07:09:54;6.50;54.90
41324;DHT22;27073;51.128;4.220;2023-01-28T07:12:20;6.40;55.70
41324;DHT22;27073;51.128;4.220;2023-01-28T07:14:45;6.40;56.60
41324;DHT22;27073;51.128;4.220;2023-01-28T07:17:11;6.40;57.50
41324;DHT22;27073;51.128;4.220;2023-01-28T07:19:37;6.30;60.70
41324;DHT22;27073;51.128;4.220;2023-01-28T07:22:03;6.30;60.10
41324;DHT22;27073;51.128;4.220;2023-01-28T07:24:29;6.40;58.10
41324;DHT22;27073;51.128;4.220;2023-01-28T07:26:55;6.40;54.50
41324;DHT22;27073;51.128;4.220;2023-01-28T07:29:21;6.30;54.60
41324;DHT22;27073;51.128;4.220;2023-01-28T07:31:47;6.40;54.40
41324;DHT22;27073;51.128;4.220;2023-01-28T07:34:12;6.40;54.00
41324;DHT22;27073;51.128;4.220;2023-01-28T07:36:38;6.40;54.90
41324;DHT22;27073;51.128;4.220;2023-01-28T07:39:04;6.30;56.70
41324;DHT22;27073;51.128;4.220;2023-01-28T07:41:30;6.30;57.00
41324;DHT22;27073;51.128;4.220;2023-01-28T07:44:03;6.30;58.00
41324;DHT22;27073;51.128;4.220;2023-01-28T07:46:29;6.20;56.20
41324;DHT22;27073;51.128;4.220;2023-01-28T07:48:55;6.30;54.50
41324;DHT22;27073;51.128;4.220;2023-01-28T07:51:20;6.30;55.40
41324;DHT22;27073;51.128;4.220;2023-01-28T07:53:46;6.30;55.20
41324;DHT22;27073;51.128;4.220;2023-01-28T07:56:12;6.20;52.60
41324;DHT22;27073;51.128;4.220;2023-01-28T07:58:38;6.30;53.30
41324;DHT22;27073;51.128;4.220;2023-01-28T08:01:03;6.30;51.10
41324;DHT22;27073;51.128;4.220;2023-01-28T08:03:29;6.20;53.00
41324;DHT22;27073;51.128;4.220;2023-01-28T08:05:55;6.20;52.00
41324;DHT22;27073;51.128;4.220;2023-01-28T08:08:23;6.20;50.40
41324;DHT22;27073;51.128;4.220;2023-01-28T08:10:49;6.10;48.40
41324;DHT22;27073;51.128;4.220;2023-01-28T08:13:16;6.20;50.50
41324;DHT22;27073;51.128;4.220;2023-01-28T08:15:43;6.20;51.20
41324;DHT22;27073;51.128;4.220;2023-01-28T08:18:10;6.30;48.80
41324;DHT22;27073;51.128;4.220;2023-01-28T08:20:38;6.20;48.90
41324;DHT22;27073;51.128;4.220;2023-01-28T08:23:11;6.20;54.70
41324;DHT22;27073;51.128;4.220;2023-01-28T08:25:37;6.30;54.70
41324;DHT22;27073;51.128;4.220;2023-01-28T08:28:04;6.20;55.20
41324;DHT22;27073;51.128;4.220;2023-01-28T08:30:31;6.20;55.90
41324;DHT22;27073;51.128;4.220;2023-01-28T08:32:58;6.20;54.00
41324;DHT22;27073;51.128;4.220;2023-01-28T08:35:25;6.10;55.70
41324;DHT22;27073;51.128;4.220;2023-01-28T08:37:51;6.10;56.80
41324;DHT22;27073;51.128;4.220;2023-01-28T08:40:17;6.10;56.10
41324;DHT22;27073;51.128;4.220;2023-01-28T08:42:50;6.20;56.70
41324;DHT22;27073;51.128;4.220;2023-01-28T08:45:17;6.20;57.30
41324;DHT22;27073;51.128;4.220;2023-01-28T08:48:04;6.10;59.90
41324;DHT22;27073;51.128;4.220;2023-01-28T08:50:35;6.20;55.10
41324;DHT22;27073;51.128;4.220;2023-01-28T08:53:08;6.30;52.60
41324;DHT22;27073;51.128;4.220;2023-01-28T08:55:35;6.30;52.70
41324;DHT22;27073;51.128;4.220;2023-01-28T08:58:03;6.20;52.40
41324;DHT22;27073;51.128;4.220;2023-01-28T09:00:29;6.30;50.60
41324;DHT22;27073;51.128;4.220;2023-01-28T09:02:54;6.30;49.40
41324;DHT22;27073;51.128;4.220;2023-01-28T09:05:20;6.30;47.10
41324;DHT22;27073;51.128;4.220;2023-01-28T09:07:47;6.30;45.70
41324;DHT22;27073;51.128;4.220;2023-01-28T09:10:13;6.40;45.00
41324;DHT22;27073;51.128;4.220;2023-01-28T09:12:41;6.40;50.10
41324;DHT22;27073;51.128;4.220;2023-01-28T09:15:07;6.20;48.70
41324;DHT22;27073;51.128;4.220;2023-01-28T09:17:33;6.10;49.20
41324;DHT22;27073;51.128;4.220;2023-01-28T09:19:59;6.10;48.40
41324;DHT22;27073;51.128;4.220;2023-01-28T09:22:25;6.10;49.70
41324;DHT22;27073;51.128;4.220;2023-01-28T09:24:51;6.10;50.80
41324;DHT22;27073;51.128;4.220;2023-01-28T09:27:17;6.20;50.50
41324;DHT22;27073;51.128;4.220;2023-01-28T09:29:42;6.10;52.60
41324;DHT22;27073;51.128;4.220;2023-01-28T09:32:08;5.80;56.40
41324;DHT22;27073;51.128;4.220;2023-01-28T09:34:34;5.70;62.60
41324;DHT22;27073;51.128;4.220;2023-01-28T09:37:00;5.90;59.90
41324;DHT22;27073;51.128;4.220;2023-01-28T09:39:26;5.90;54.90
41324;DHT22;27073;51.128;4.220;2023-01-28T09:47:57;5.70;50.60
41324;DHT22;27073;51.128;4.220;2023-01-28T09:50:31;5.60;48.60
41324;DHT22;27073;51.128;4.220;2023-01-28T09:53:04;5.50;51.20
41324;DHT22;27073;51.128;4.220;2023-01-28T09:55:33;5.60;52.70
41324;DHT22;27073;51.128;4.220;2023-01-28T09:58:00;5.50;51.70
41324;DHT22;27073;51.128;4.220;2023-01-28T10:00:36;5.50;52.00
41324;DHT22;27073;51.128;4.220;2023-01-28T10:09:15;5.50;55.70
41324;DHT22;27073;51.128;4.220;2023-01-28T10:14:40;5.60;52.20
41324;DHT22;27073;51.128;4.220;2023-01-28T10:17:30;5.70;52.60
41324;DHT22;27073;51.128;4.220;2023-01-28T10:25:20;6.10;49.50
41324;DHT22;27073;51.128;4.220;2023-01-28T10:27:47;6.00;49.60
41324;DHT22;27073;51.128;4.220;2023-01-28T10:30:20;6.10;49.10
41324;DHT22;27073;51.128;4.220;2023-01-28T10:33:36;6.00;47.60
41324;DHT22;27073;51.128;4.220;2023-01-28T10:35:40;6.00;48.70
41324;DHT22;27073;51.128;4.220;2023-01-28T10:38:15;6.30;45.30
41324;DHT22;27073;51.128;4.220;2023-01-28T10:40:42;5.60;53.80
41324;DHT22;27073;51.128;4.220;2023-01-28T10:43:08;5.70;56.60
41324;DHT22;27073;51.128;4.220;2023-01-28T10:46:00;6.00;51.50
41324;DHT22;27073;51.128;4.220;2023-01-28T10:48:27;6.10;47.80
41324;DHT22;27073;51.128;4.220;2023-01-28T10:50:55;6.40;40.90
41324;DHT22;27073;51.128;4.220;2023-01-28T10:53:41;6.40;38.80
41324;DHT22;27073;51.128;4.220;2023-01-28T10:56:10;6.60;37.00
41324;DHT22;27073;51.128;4.220;2023-01-28T10:59:02;6.60;30.10
41324;DHT22;27073;51.128;4.220;2023-01-28T11:01:46;6.60;31.00
41324;DHT22;27073;51.128;4.220;2023-01-28T11:04:33;6.60;31.20
41324;DHT22;27073;51.128;4.220;2023-01-28T11:07:05;6.70;32.00
41324;DHT22;27073;51.128;4.220;2023-01-28T11:09:34;6.60;32.00
41324;DHT22;27073;51.128;4.220;2023-01-28T11:12:33;6.50;28.40
41324;DHT22;27073;51.128;4.220;2023-01-28T11:15:03;6.20;31.90
41324;DHT22;27073;51.128;4.220;2023-01-28T11:17:30;6.30;29.50
41324;DHT22;27073;51.128;4.220;2023-01-28T11:19:58;6.30;33.70
41324;DHT22;27073;51.128;4.220;2023-01-28T11:22:42;6.30;29.00
41324;DHT22;27073;51.128;4.220;2023-01-28T11:27:46;6.20;38.50
41324;DHT22;27073;51.128;4.220;2023-01-28T11:30:22;6.30;34.40
41324;DHT22;27073;51.128;4.220;2023-01-28T11:35:35;6.30;29.10
41324;DHT22;27073;51.128;4.220;2023-01-28T11:38:01;6.00;36.50
41324;DHT22;27073;51.128;4.220;2023-01-28T11:40:27;6.00;39.60
41324;DHT22;27073;51.128;4.220;2023-01-28T11:42:54;6.10;37.80
41324;DHT22;27073;51.128;4.220;2023-01-28T11:46:18;6.20;30.70
41324;DHT22;27073;51.128;4.220;2023-01-28T11:48:29;6.40;28.20
41324;DHT22;27073;51.128;4.220;2023-01-28T11:51:03;6.20;26.00
41324;DHT22;27073;51.128;4.220;2023-01-28T11:59:50;6.00;27.50
41324;DHT22;27073;51.128;4.220;2023-01-28T12:02:59;6.10;36.00
41324;DHT22;27073;51.128;4.220;2023-01-28T12:05:51;6.10;26.90
41324;DHT22;27073;51.128;4.220;2023-01-28T12:08:27;6.10;28.20
41324;DHT22;27073;51.128;4.220;2023-01-28T12:25:18;7.40;1.00
41324;DHT22;27073;51.128;4.220;2023-01-28T12:30:19;7.70;1.00
41324;DHT22;27073;51.128;4.220;2023-01-28T12:41:14;7.90;1.00
41324;DHT22;27073;51.128;4.220;2023-01-28T12:44:03;8.00;1.00
41324;DHT22;27073;51.128;4.220;2023-01-28T12:46:46;7.70;1.00
41324;DHT22;27073;51.128;4.220;2023-01-28T12:49:41;7.60;1.00
41324;DHT22;27073;51.128;4.220;2023-01-28T12:52:14;7.80;1.00
41324;DHT22;27073;51.128;4.220;2023-01-28T12:55:02;7.70;1.00
41324;DHT22;27073;51.128;4.220;2023-01-28T12:57:31;7.70;1.00
41324;DHT22;27073;51.128;4.220;2023-01-28T13:00:36;7.90;1.00
41324;DHT22;27073;51.128;4.220;2023-01-28T13:05:39;8.00;1.00
41324;DHT22;27073;51.128;4.220;2023-01-28T13:08:22;8.30;1.00
41324;DHT22;27073;51.128;4.220;2023-01-28T13:10:49;8.40;1.00
41324;DHT22;27073;51.128;4.220;2023-01-28T13:15:56;8.50;1.00
41324;DHT22;27073;51.128;4.220;2023-01-28T13:20:57;8.90;1.00
41324;DHT22;27073;51.128;4.220;2023-01-28T13:23:27;9.10;1.00
41324;DHT22;27073;51.128;4.220;2023-01-28T13:28:49;9.10;1.00
41324;DHT22;27073;51.128;4.220;2023-01-28T13:31:21;9.10;99.90
41324;DHT22;27073;51.128;4.220;2023-01-28T13:34:00;9.00;99.90
41324;DHT22;27073;51.128;4.220;2023-01-28T13:36:44;8.90;1.00
41324;DHT22;27073;51.128;4.220;2023-01-28T13:44:28;8.10;1.00
41324;DHT22;27073;51.128;4.220;2023-01-28T13:46:57;8.20;1.00
41324;DHT22;27073;51.128;4.220;2023-01-28T13:49:54;8.40;1.00
41324;DHT22;27073;51.128;4.220;2023-01-28T13:52:55;8.40;1.00
41324;DHT22;27073;51.128;4.220;2023-01-28T13:55:33;8.60;1.00
41324;DHT22;27073;51.128;4.220;2023-01-28T14:01:02;8.40;1.00
41324;DHT22;27073;51.128;4.220;2023-01-28T14:18:27;8.20;1.00
41324;DHT22;27073;51.128;4.220;2023-01-28T14:20:55;8.60;1.00
41324;DHT22;27073;51.128;4.220;2023-01-28T14:23:25;8.70;1.00
41324;DHT22;27073;51.128;4.220;2023-01-28T14:25:59;8.60;1.00
41324;DHT22;27073;51.128;4.220;2023-01-28T14:31:04;8.70;1.00
41324;DHT22;27073;51.128;4.220;2023-01-28T14:33:31;8.70;1.00
41324;DHT22;27073;51.128;4.220;2023-01-28T14:35:57;8.70;99.90
41324;DHT22;27073;51.128;4.220;2023-01-28T14:38:23;8.60;99.90
41324;DHT22;27073;51.128;4.220;2023-01-28T14:40:51;8.70;99.90
41324;DHT22;27073;51.128;4.220;2023-01-28T14:43:22;8.80;99.90
41324;DHT22;27073;51.128;4.220;2023-01-28T14:45:58;8.80;99.90
41324;DHT22;27073;51.128;4.220;2023-01-28T14:51:12;8.70;99.90
41324;DHT22;27073;51.128;4.220;2023-01-28T14:54:03;8.80;1.00
41324;DHT22;27073;51.128;4.220;2023-01-28T14:59:25;9.20;99.90
41324;DHT22;27073;51.128;4.220;2023-01-28T15:01:56;9.10;99.90
41324;DHT22;27073;51.128;4.220;2023-01-28T15:04:31;9.10;99.90
41324;DHT22;27073;51.128;4.220;2023-01-28T15:07:14;9.10;99.90
41324;DHT22;27073;51.128;4.220;2023-01-28T15:09:40;9.00;99.90
41324;DHT22;27073;51.128;4.220;2023-01-28T15:12:07;8.90;99.90
41324;DHT22;27073;51.128;4.220;2023-01-28T15:14:33;8.50;1.00
41324;DHT22;27073;51.128;4.220;2023-01-28T15:17:00;8.50;1.00
41324;DHT22;27073;51.128;4.220;2023-01-28T15:19:32;8.50;1.00
41324;DHT22;27073;51.128;4.220;2023-01-28T15:22:02;8.60;1.00
41324;DHT22;27073;51.128;4.220;2023-01-28T15:24:30;8.50;1.00
41324;DHT22;27073;51.128;4.220;2023-01-28T15:26:56;8.70;99.90
41324;DHT22;27073;51.128;4.220;2023-01-28T15:31:51;9.00;99.90
41324;DHT22;27073;51.128;4.220;2023-01-28T15:34:18;9.20;99.90
41324;DHT22;27073;51.128;4.220;2023-01-28T15:36:46;9.30;99.90
41324;DHT22;27073;51.128;4.220;2023-01-28T15:39:19;9.30;99.90
41324;DHT22;27073;51.128;4.220;2023-01-28T15:41:51;9.30;99.90
41324;DHT22;27073;51.128;4.220;2023-01-28T15:47:00;9.10;99.90
41324;DHT22;27073;51.128;4.220;2023-01-28T15:49:32;9.00;99.90
41324;DHT22;27073;51.128;4.220;2023-01-28T15:52:00;8.70;99.90
41324;DHT22;27073;51.128;4.220;2023-01-28T15:54:26;8.60;99.90
41324;DHT22;27073;51.128;4.220;2023-01-28T15:56:52;8.60;99.90
41324;DHT22;27073;51.128;4.220;2023-01-28T15:59:26;8.70;99.90
41324;DHT22;27073;51.128;4.220;2023-01-28T16:02:25;8.60;99.90
41324;DHT22;27073;51.128;4.220;2023-01-28T16:05:00;8.50;99.90
41324;DHT22;27073;51.128;4.220;2023-01-28T16:07:29;8.50;99.90
41324;DHT22;27073;51.128;4.220;2023-01-28T16:09:57;8.50;99.90
41324;DHT22;27073;51.128;4.220;2023-01-28T16:12:24;8.40;99.90
41324;DHT22;27073;51.128;4.220;2023-01-28T16:14:55;8.30;99.90
41324;DHT22;27073;51.128;4.220;2023-01-28T16:17:25;8.30;99.90
41324;DHT22;27073;51.128;4.220;2023-01-28T16:20:01;8.30;99.90
41324;DHT22;27073;51.128;4.220;2023-01-28T16:22:38;8.30;1.00
41324;DHT22;27073;51.128;4.220;2023-01-28T16:27:46;8.20;1.00
41324;DHT22;27073;51.128;4.220;2023-01-28T16:30:13;8.10;1.00
41324;DHT22;27073;51.128;4.220;2023-01-28T16:32:39;8.10;1.00
41324;DHT22;27073;51.128;4.220;2023-01-28T16:37:38;8.00;1.00
41324;DHT22;27073;51.128;4.220;2023-01-28T16:40:04;8.00;1.00
41324;DHT22;27073;51.128;4.220;2023-01-28T16:42:31;8.00;1.00
41324;DHT22;27073;51.128;4.220;2023-01-28T16:44:57;7.80;1.00
41324;DHT22;27073;51.128;4.220;2023-01-28T16:47:24;7.80;1.00
41324;DHT22;27073;51.128;4.220;2023-01-28T16:49:49;7.70;1.00
41324;DHT22;27073;51.128;4.220;2023-01-28T16:52:15;7.70;1.00
41324;DHT22;27073;51.128;4.220;2023-01-28T16:54:43;7.70;1.00
41324;DHT22;27073;51.128;4.220;2023-01-28T16:57:18;7.80;1.00
41324;DHT22;27073;51.128;4.220;2023-01-28T16:59:44;7.80;1.00
41324;DHT22;27073;51.128;4.220;2023-01-28T17:02:16;7.70;1.00
41324;DHT22;27073;51.128;4.220;2023-01-28T17:04:42;7.70;1.00
41324;DHT22;27073;51.128;4.220;2023-01-28T17:07:08;7.50;1.00
41324;DHT22;27073;51.128;4.220;2023-01-28T17:09:34;7.50;1.00
41324;DHT22;27073;51.128;4.220;2023-01-28T17:12:03;7.40;1.00
41324;DHT22;27073;51.128;4.220;2023-01-28T17:14:29;7.50;1.00
41324;DHT22;27073;51.128;4.220;2023-01-28T17:16:55;7.50;1.00
41324;DHT22;27073;51.128;4.220;2023-01-28T17:19:21;7.40;1.00
41324;DHT22;27073;51.128;4.220;2023-01-28T17:21:46;7.50;1.00
41324;DHT22;27073;51.128;4.220;2023-01-28T17:24:12;7.40;1.00
41324;DHT22;27073;51.128;4.220;2023-01-28T17:26:38;7.40;1.00
41324;DHT22;27073;51.128;4.220;2023-01-28T17:29:05;7.40;1.00
41324;DHT22;27073;51.128;4.220;2023-01-28T17:31:32;7.20;1.00
41324;DHT22;27073;51.128;4.220;2023-01-28T17:33:58;7.10;1.00
41324;DHT22;27073;51.128;4.220;2023-01-28T17:36:25;7.00;1.00
41324;DHT22;27073;51.128;4.220;2023-01-28T17:38:51;7.10;1.00
41324;DHT22;27073;51.128;4.220;2023-01-28T17:41:18;7.10;1.00
41324;DHT22;27073;51.128;4.220;2023-01-28T17:43:49;7.00;1.00
41324;DHT22;27073;51.128;4.220;2023-01-28T17:46:16;7.00;1.00
41324;DHT22;27073;51.128;4.220;2023-01-28T17:48:43;6.90;1.00
41324;DHT22;27073;51.128;4.220;2023-01-28T17:51:11;6.90;1.00
41324;DHT22;27073;51.128;4.220;2023-01-28T17:53:37;6.90;1.00
41324;DHT22;27073;51.128;4.220;2023-01-28T17:56:03;6.90;6.90
41324;DHT22;27073;51.128;4.220;2023-01-28T17:58:29;6.80;8.00
41324;DHT22;27073;51.128;4.220;2023-01-28T18:00:55;6.80;7.60
41324;DHT22;27073;51.128;4.220;2023-01-28T18:03:21;6.80;8.50
41324;DHT22;27073;51.128;4.220;2023-01-28T18:05:56;6.80;6.60
41324;DHT22;27073;51.128;4.220;2023-01-28T18:08:23;6.80;8.20
41324;DHT22;27073;51.128;4.220;2023-01-28T18:10:49;6.80;1.00
41324;DHT22;27073;51.128;4.220;2023-01-28T18:13:14;6.80;1.00